Time;durP1;ratioP1;P1;durP2;ratioP2;P2;SDS_P1;SDS_P2;PMS_P1;PMS_P2;Temp;Humidity;BMP_temperature;BMP_pressure;BME280_temperature;BME280_humidity;BME280_pressure;Samples;Min_cycle;Max_cycle;Signal;HPM_P1;HPM_P2
2022/10/03 21:42:25;;;;;;;34.84;20.27;;;14.10;1.00;;;;;;6288524;22;15479331;-86
2022/10/03 21:45:07;;;;;;;25.70;13.80;;;14.10;99.90;;;;;;6216483;22;20344;-86
2022/10/03 21:51:36;;;;;;;;;;;;;;;;;;;;;
2022/10/03 21:54:30;;;;;;;12.73;8.60;;;13.90;1.00;;;;;;6153598;23;20470;-87
2022/10/03 22:10:55;;;;;;;9.93;6.80;;;13.70;99.90;;;;;;6285705;22;20386;-86
2022/10/03 22:14:47;;;;;;;;;;;;;;;;;;;;;
2022/10/03 22:21:43;;;;;;;;;;;;;;;;;;;;;
2022/10/03 22:24:47;;;;;;;11.53;6.63;;;13.60;26.00;;;;;;6254642;22;20472;-85
2022/10/03 22:27:38;;;;;;;12.30;6.93;;;13.60;99.90;;;;;;6278287;22;20781;-85
2022/10/03 22:30:30;;;;;;;8.03;5.50;;;13.60;3.30;;;;;;6305038;22;20390;-86
2022/10/03 22:33:35;;;;;;;;;;;;;;;;;;;;;
2022/10/03 22:36:29;;;;;;;;;;;;;;;;;;;;;
2022/10/03 22:42:44;;;;;;;11.67;6.07;;;13.80;1.00;;;;;;6280754;22;20448;-85
2022/10/03 22:45:23;;;;;;;10.50;6.60;;;13.80;1.00;;;;;;6278377;22;20742;-85
2022/10/03 22:47:54;;;;;;;7.07;5.33;;;13.70;1.00;;;;;;6305803;22;20749;-85
2022/10/03 22:50:30;;;;;;;13.80;5.63;;;13.70;1.00;;;;;;6278853;22;20413;-86
2022/10/03 22:53:18;;;;;;;11.60;6.40;;;13.80;1.00;;;;;;6278150;22;20390;-85
2022/10/03 22:55:58;;;;;;;13.70;5.83;;;13.80;1.00;;;;;;6306253;22;20445;-85
2022/10/03 22:58:29;;;;;;;11.90;6.47;;;13.80;1.00;;;;;;6305347;22;20362;-85
2022/10/03 23:00:58;;;;;;;15.83;6.57;;;13.80;43.40;;;;;;6305792;22;20472;-86
2022/10/03 23:03:31;;;;;;;12.23;5.50;;;13.80;1.00;;;;;;6306247;22;20370;-85
2022/10/03 23:06:47;;;;;;;10.10;5.87;;;13.80;1.00;;;;;;6278055;22;20378;-85
2022/10/03 23:09:31;;;;;;;8.47;5.50;;;13.70;1.00;;;;;;6274933;22;20374;-86
2022/10/03 23:12:09;;;;;;;;;;;;;;;;;;;;;
2022/10/03 23:15:01;;;;;;;9.70;5.40;;;13.70;99.90;;;;;;6307129;22;20430;-85
2022/10/03 23:18:08;;;;;;;8.37;5.13;;;13.70;99.90;;;;;;6306469;22;20403;-85
2022/10/03 23:20:59;;;;;;;7.37;4.60;;;13.70;99.90;;;;;;6307313;22;20459;-85
2022/10/03 23:23:36;;;;;;;7.03;4.80;;;13.60;14.20;;;;;;6279590;22;20766;-85
2022/10/03 23:26:29;;;;;;;10.57;5.50;;;13.50;1.00;;;;;;6307466;22;20407;-85
2022/10/03 23:29:22;;;;;;;7.87;5.90;;;13.50;97.50;;;;;;6306929;22;20380;-85
2022/10/03 23:31:57;;;;;;;10.77;4.50;;;13.40;99.90;;;;;;6280111;22;20405;-85
2022/10/03 23:34:35;;;;;;;10.37;4.93;;;13.40;99.90;;;;;;6306929;22;20403;-86
2022/10/03 23:37:34;;;;;;;8.83;5.53;;;13.30;99.90;;;;;;6307670;22;20378;-85
2022/10/03 23:39:59;;;;;;;16.90;7.43;;;13.30;99.90;;;;;;6316637;22;20410;-85
2022/10/03 23:43:03;;;;;;;7.30;5.67;;;13.20;99.90;;;;;;6327954;22;20478;-86
2022/10/03 23:45:30;;;;;;;8.33;5.40;;;13.20;1.00;;;;;;6317601;22;20132;-86
2022/10/03 23:48:17;;;;;;;9.73;5.33;;;13.10;1.00;;;;;;6306292;22;20773;-85
2022/10/03 23:50:57;;;;;;;9.60;5.30;;;13.10;1.00;;;;;;6279567;22;20406;-85
2022/10/03 23:53:30;;;;;;;13.40;5.50;;;13.10;54.10;;;;;;6306356;22;20835;-85
2022/10/03 23:56:01;;;;;;;8.87;5.33;;;13.10;99.90;;;;;;6305658;22;20988;-85
2022/10/03 23:58:35;;;;;;;7.70;5.63;;;13.10;99.90;;;;;;6279180;22;20422;-85
